Main page
METAR-TAF:

METAR-TAF

Airports :

Piacenza Air Base

Piacenza, Italy

latitude: 44-55N, longitude: 009-44E, elevation: 134 m

Current weather observation

The report was made 57 minutes ago, at 15:55 UTC
Wind 2 kt from the East/Northeast
Temperature 20°C
Humidity 100%
Pressure 1017 hPa
Visibility: 4000 m
Scattered clouds at a height of 3000 ft
mist

METAR: LIMS 231555Z 07002KT 4000 BR SCT030 20/20 Q1017 RMK BKN SCT100 VIS MIN 4000 WIND THR30 10002KT GRN

Time: 18:52 (16:52 UTC)


TAF: missing

Weather observations and forecasts of more than 4000 airports (METAR and TAF reports).

The available stations are represented by yellow and red dots on the map.

Hover mouse over dot to see the name of the station.

Then click to see weather observations and forecasts.

To change the map : click on the green buttons with a black cross to zoom in, on the green button with a dash to zoom out, or on the green arrows for adjacent maps.


METAR-TAF: